createdAt,value
2023-02-13T00:00:06.454Z,55.06
2023-02-13T00:01:06.448Z,55.06
2023-02-13T00:02:06.530Z,55.06
2023-02-13T00:03:06.508Z,55.06
2023-02-13T00:04:06.460Z,55.06
2023-02-13T00:05:06.455Z,55.06
2023-02-13T00:06:06.455Z,55.06
2023-02-13T00:07:06.454Z,55.06
2023-02-13T00:08:06.474Z,55.06
2023-02-13T00:09:07.410Z,55.06
2023-02-13T00:10:06.457Z,55.06
2023-02-13T00:11:06.458Z,55.06
2023-02-13T00:12:06.465Z,55.06
2023-02-13T00:13:06.464Z,55.06
2023-02-13T00:14:06.457Z,55.06
2023-02-13T00:15:06.455Z,55.06
2023-02-13T00:16:06.543Z,55.06
2023-02-13T00:17:06.457Z,55.06
2023-02-13T00:18:06.454Z,55.06
2023-02-13T00:19:06.476Z,55.06
2023-02-13T00:20:06.458Z,55.06
2023-02-13T00:21:06.467Z,55.06
2023-02-13T00:22:06.482Z,93.18
2023-02-13T00:23:06.463Z,93.18
2023-02-13T00:24:06.476Z,93.18
2023-02-13T00:25:06.497Z,93.18
2023-02-13T00:26:06.469Z,93.18
2023-02-13T00:27:06.495Z,93.18
2023-02-13T00:28:06.474Z,93.18
2023-02-13T00:29:06.488Z,93.18
2023-02-13T00:30:06.470Z,93.18
2023-02-13T00:31:06.552Z,93.18
2023-02-13T00:32:06.567Z,93.18
2023-02-13T00:33:06.473Z,93.18
2023-02-13T00:34:06.470Z,93.18
2023-02-13T00:35:06.476Z,93.18
2023-02-13T00:36:06.468Z,93.18
2023-02-13T00:37:06.474Z,93.18
2023-02-13T00:38:06.486Z,93.18
2023-02-13T00:39:06.493Z,93.18
2023-02-13T00:40:06.475Z,93.18
2023-02-13T00:41:06.513Z,93.18
2023-02-13T00:42:06.498Z,93.18
2023-02-13T00:43:06.482Z,93.18
2023-02-13T00:44:06.477Z,93.18
2023-02-13T00:45:06.494Z,93.18
2023-02-13T00:46:06.487Z,93.18
2023-02-13T00:47:06.481Z,93.18
2023-02-13T00:48:06.502Z,93.18
2023-02-13T00:49:06.481Z,93.18
2023-02-13T00:50:06.487Z,93.18
2023-02-13T00:51:06.488Z,93.18
2023-02-13T00:52:06.504Z,93.18
2023-02-13T00:53:06.494Z,93.18
2023-02-13T00:54:06.494Z,128.47
2023-02-13T00:55:06.507Z,97.41
2023-02-13T00:56:06.503Z,103.06
2023-02-13T00:57:06.547Z,103.06
2023-02-13T00:58:06.510Z,103.06
2023-02-13T00:59:06.866Z,103.06
2023-02-13T01:00:06.498Z,103.06
2023-02-13T01:01:06.503Z,103.06
2023-02-13T01:02:06.498Z,101.65
2023-02-13T01:03:06.503Z,96
2023-02-13T01:04:06.516Z,96
2023-02-13T01:05:06.503Z,101.65
2023-02-13T01:06:06.503Z,98.82
2023-02-13T01:07:06.506Z,103.06
2023-02-13T01:08:06.523Z,105.88
2023-02-13T01:09:06.500Z,86.12
2023-02-13T01:10:06.501Z,100.24
2023-02-13T01:11:06.505Z,96
2023-02-13T01:12:06.515Z,103.06
2023-02-13T01:13:06.530Z,101.65
2023-02-13T01:14:06.515Z,117.18
2023-02-13T01:15:06.529Z,114.35
2023-02-13T01:16:06.558Z,118.59
2023-02-13T01:17:06.522Z,124.24
2023-02-13T01:18:06.525Z,120
2023-02-13T01:19:06.520Z,112.94
2023-02-13T01:20:06.515Z,101.65
2023-02-13T01:21:06.525Z,118.59
2023-02-13T01:22:06.513Z,117.18
2023-02-13T01:23:06.523Z,96
2023-02-13T01:24:06.522Z,87.53
2023-02-13T01:25:06.519Z,90.35
2023-02-13T01:26:06.520Z,90.35
2023-02-13T01:27:06.529Z,90.35
2023-02-13T01:28:06.537Z,90.35
2023-02-13T01:29:06.571Z,90.35
2023-02-13T01:30:06.546Z,90.35
2023-02-13T01:31:06.650Z,90.35
2023-02-13T01:32:06.601Z,90.35
2023-02-13T01:33:06.531Z,90.35
2023-02-13T01:34:06.526Z,90.35
2023-02-13T01:35:06.525Z,90.35
2023-02-13T01:36:06.534Z,90.35
2023-02-13T01:37:06.542Z,90.35
2023-02-13T01:38:06.528Z,90.35
2023-02-13T01:39:06.536Z,90.35
2023-02-13T01:40:06.525Z,90.35
2023-02-13T01:41:06.535Z,90.35
2023-02-13T01:42:06.563Z,90.35
2023-02-13T01:43:06.533Z,90.35
2023-02-13T01:44:06.533Z,90.35
2023-02-13T01:45:06.559Z,90.35
2023-02-13T01:46:06.553Z,90.35
2023-02-13T01:47:06.531Z,90.35
2023-02-13T01:48:06.536Z,90.35
2023-02-13T01:49:06.538Z,90.35
2023-02-13T01:50:06.536Z,90.35
2023-02-13T01:51:06.545Z,90.35
2023-02-13T01:52:06.542Z,90.35
2023-02-13T01:53:06.539Z,90.35
2023-02-13T01:54:06.533Z,90.35
2023-02-13T01:55:06.543Z,90.35
2023-02-13T01:56:06.537Z,90.35
2023-02-13T01:57:06.539Z,90.35
2023-02-13T01:58:06.541Z,90.35
2023-02-13T01:59:06.532Z,90.35
2023-02-13T02:00:06.553Z,90.35
2023-02-13T02:01:06.568Z,90.35
2023-02-13T02:02:06.599Z,90.35
2023-02-13T02:03:06.537Z,90.35
2023-02-13T02:04:06.567Z,90.35
2023-02-13T02:05:06.538Z,90.35
2023-02-13T02:06:06.547Z,90.35
2023-02-13T02:07:06.540Z,90.35
2023-02-13T02:08:06.540Z,90.35
2023-02-13T02:09:06.553Z,84.71
2023-02-13T02:10:06.544Z,93.18
2023-02-13T02:11:06.549Z,90.35
2023-02-13T02:12:06.547Z,88.94
2023-02-13T02:13:06.544Z,80.47
2023-02-13T02:14:06.578Z,80.47
2023-02-13T02:15:06.543Z,80.47
2023-02-13T02:16:06.571Z,80.47
2023-02-13T02:17:06.589Z,80.47
2023-02-13T02:18:06.546Z,80.47
2023-02-13T02:19:06.548Z,80.47
2023-02-13T02:20:06.571Z,80.47
2023-02-13T02:21:06.555Z,80.47
2023-02-13T02:22:06.569Z,80.47
2023-02-13T02:23:06.562Z,80.47
2023-02-13T02:24:06.553Z,80.47
2023-02-13T02:25:06.545Z,80.47
2023-02-13T02:26:06.548Z,80.47
2023-02-13T02:27:06.552Z,80.47
2023-02-13T02:28:06.570Z,80.47
2023-02-13T02:29:06.559Z,80.47
2023-02-13T02:30:06.561Z,80.47
2023-02-13T02:31:06.710Z,80.47
2023-02-13T02:32:06.549Z,80.47
2023-02-13T02:33:06.583Z,80.47
2023-02-13T02:34:06.575Z,80.47
2023-02-13T02:35:06.577Z,80.47
2023-02-13T02:36:06.571Z,80.47
2023-02-13T02:37:06.573Z,80.47
2023-02-13T02:38:06.586Z,80.47
2023-02-13T02:39:06.573Z,80.47
2023-02-13T02:40:06.567Z,80.47
2023-02-13T02:41:06.561Z,80.47
2023-02-13T02:42:06.560Z,80.47
2023-02-13T02:43:06.573Z,80.47
2023-02-13T02:44:06.567Z,80.47
2023-02-13T02:45:06.578Z,80.47
2023-02-13T02:46:06.561Z,80.47
2023-02-13T02:47:06.558Z,80.47
2023-02-13T02:48:06.576Z,80.47
2023-02-13T02:49:06.592Z,80.47
2023-02-13T02:50:06.562Z,80.47
2023-02-13T02:51:06.581Z,80.47
2023-02-13T02:52:06.559Z,80.47
2023-02-13T02:53:06.568Z,80.47
2023-02-13T02:54:06.567Z,80.47
2023-02-13T02:55:06.575Z,80.47
2023-02-13T02:56:06.569Z,80.47
2023-02-13T02:57:06.563Z,80.47
2023-02-13T02:58:06.566Z,80.47
2023-02-13T02:59:06.570Z,80.47
2023-02-13T03:00:06.601Z,80.47
2023-02-13T03:01:06.619Z,80.47
2023-02-13T03:02:06.562Z,80.47
2023-02-13T03:03:06.563Z,80.47
2023-02-13T03:04:06.651Z,80.47
2023-02-13T03:05:06.588Z,80.47
2023-02-13T03:06:06.567Z,80.47
2023-02-13T03:07:06.570Z,80.47
2023-02-13T03:08:06.584Z,80.47
2023-02-13T03:09:06.587Z,80.47
2023-02-13T03:10:06.574Z,80.47
2023-02-13T03:11:06.567Z,80.47
2023-02-13T03:12:06.571Z,80.47
2023-02-13T03:13:06.570Z,80.47
2023-02-13T03:14:06.575Z,80.47
2023-02-13T03:15:06.575Z,80.47
2023-02-13T03:16:06.590Z,80.47
2023-02-13T03:17:06.569Z,80.47
2023-02-13T03:18:06.578Z,80.47
2023-02-13T03:19:06.571Z,80.47
2023-02-13T03:20:06.560Z,80.47
2023-02-13T03:21:06.617Z,80.47
2023-02-13T03:22:06.565Z,80.47
2023-02-13T03:23:06.574Z,80.47
2023-02-13T03:24:06.577Z,80.47
2023-02-13T03:25:06.573Z,80.47
2023-02-13T03:26:06.612Z,80.47
2023-02-13T03:27:06.570Z,80.47
2023-02-13T03:28:06.679Z,80.47
2023-02-13T03:29:06.576Z,80.47
2023-02-13T03:30:06.570Z,80.47
2023-02-13T03:31:06.627Z,80.47
2023-02-13T03:32:06.576Z,80.47
2023-02-13T03:33:06.568Z,80.47
2023-02-13T03:34:06.587Z,80.47
2023-02-13T03:35:06.567Z,80.47
2023-02-13T03:36:06.572Z,80.47
2023-02-13T03:37:06.597Z,80.47
2023-02-13T03:38:06.568Z,80.47
2023-02-13T03:39:06.584Z,80.47
2023-02-13T03:40:06.570Z,80.47
2023-02-13T03:41:06.567Z,80.47
2023-02-13T03:42:06.570Z,80.47
2023-02-13T03:43:06.579Z,80.47
2023-02-13T03:44:06.589Z,80.47
2023-02-13T03:45:06.595Z,80.47
2023-02-13T03:46:06.615Z,80.47
2023-02-13T03:47:06.572Z,80.47
2023-02-13T03:48:06.578Z,80.47
2023-02-13T03:49:06.575Z,80.47
2023-02-13T03:50:06.575Z,80.47
2023-02-13T03:51:06.586Z,80.47
2023-02-13T03:52:06.572Z,80.47
2023-02-13T03:53:06.610Z,80.47
2023-02-13T03:54:06.573Z,80.47
2023-02-13T03:55:06.575Z,80.47
2023-02-13T03:56:06.590Z,80.47
2023-02-13T03:57:06.600Z,80.47
2023-02-13T03:58:06.584Z,80.47
2023-02-13T03:59:06.592Z,80.47
2023-02-13T04:00:06.579Z,80.47
2023-02-13T04:01:06.628Z,80.47
2023-02-13T04:02:06.672Z,80.47
2023-02-13T04:03:06.589Z,80.47
2023-02-13T04:04:06.574Z,80.47
2023-02-13T04:05:06.588Z,80.47
2023-02-13T04:06:06.586Z,80.47
2023-02-13T04:07:06.578Z,80.47
2023-02-13T04:08:06.584Z,80.47
2023-02-13T04:09:06.622Z,80.47
2023-02-13T04:10:06.588Z,80.47
2023-02-13T04:11:06.581Z,80.47
2023-02-13T04:12:06.585Z,80.47
2023-02-13T04:13:06.595Z,80.47
2023-02-13T04:14:06.579Z,80.47
2023-02-13T04:15:06.590Z,80.47
2023-02-13T04:16:06.590Z,80.47
2023-02-13T04:17:06.584Z,80.47
2023-02-13T04:18:07.013Z,80.47
2023-02-13T04:19:06.594Z,80.47
2023-02-13T04:20:06.591Z,80.47
2023-02-13T04:21:06.592Z,80.47
2023-02-13T04:22:06.582Z,80.47
2023-02-13T04:23:06.583Z,80.47
2023-02-13T04:24:06.589Z,80.47
2023-02-13T04:25:06.612Z,80.47
2023-02-13T04:26:06.587Z,80.47
2023-02-13T04:27:06.589Z,80.47
2023-02-13T04:28:06.664Z,80.47
2023-02-13T04:29:06.601Z,80.47
2023-02-13T04:30:06.588Z,80.47
2023-02-13T04:31:06.706Z,80.47
2023-02-13T04:32:06.608Z,80.47
2023-02-13T04:33:06.586Z,80.47
2023-02-13T04:34:06.591Z,80.47
2023-02-13T04:35:06.617Z,80.47
2023-02-13T04:36:06.595Z,80.47
2023-02-13T04:37:06.589Z,80.47
2023-02-13T04:38:06.608Z,80.47
2023-02-13T04:39:06.609Z,80.47
2023-02-13T04:40:06.598Z,80.47
2023-02-13T04:41:06.619Z,80.47
2023-02-13T04:42:06.597Z,80.47
2023-02-13T04:43:06.595Z,80.47
2023-02-13T04:44:06.599Z,80.47
2023-02-13T04:45:06.595Z,80.47
2023-02-13T04:46:06.741Z,80.47
2023-02-13T04:47:06.599Z,80.47
2023-02-13T04:48:06.601Z,80.47
2023-02-13T04:49:06.598Z,80.47
2023-02-13T04:50:06.598Z,80.47
2023-02-13T04:51:06.611Z,80.47
2023-02-13T04:52:06.595Z,80.47
2023-02-13T04:53:06.601Z,80.47
2023-02-13T04:54:06.612Z,80.47
2023-02-13T04:55:06.611Z,80.47
2023-02-13T04:56:06.612Z,80.47
2023-02-13T04:57:06.632Z,80.47
2023-02-13T04:58:06.615Z,80.47
2023-02-13T04:59:06.613Z,80.47
2023-02-13T05:00:06.610Z,80.47
2023-02-13T05:01:06.670Z,80.47
2023-02-13T05:02:06.626Z,80.47
2023-02-13T05:03:06.619Z,80.47
2023-02-13T05:04:06.625Z,80.47
2023-02-13T05:05:06.608Z,80.47
2023-02-13T05:06:06.600Z,80.47
2023-02-13T05:07:06.607Z,80.47
2023-02-13T05:08:06.607Z,80.47
2023-02-13T05:09:06.602Z,80.47
2023-02-13T05:10:06.600Z,80.47
2023-02-13T05:11:06.607Z,80.47
2023-02-13T05:12:06.606Z,80.47
2023-02-13T05:13:06.632Z,80.47
2023-02-13T05:14:06.607Z,80.47
2023-02-13T05:15:06.625Z,80.47
2023-02-13T05:16:06.659Z,80.47
2023-02-13T05:17:06.624Z,80.47
2023-02-13T05:18:06.620Z,80.47
2023-02-13T05:19:06.604Z,80.47
2023-02-13T05:20:06.616Z,80.47
2023-02-13T05:21:06.607Z,80.47
2023-02-13T05:22:06.602Z,80.47
2023-02-13T05:23:06.622Z,80.47
2023-02-13T05:24:06.621Z,80.47
2023-02-13T05:25:06.624Z,80.47
2023-02-13T05:26:06.625Z,80.47
2023-02-13T05:27:06.609Z,80.47
2023-02-13T05:28:06.678Z,80.47
2023-02-13T05:29:06.677Z,80.47
2023-02-13T05:30:06.656Z,80.47
2023-02-13T05:31:06.756Z,80.47
2023-02-13T05:32:06.664Z,80.47
2023-02-13T05:33:06.620Z,80.47
2023-02-13T05:34:06.619Z,80.47
2023-02-13T05:35:06.631Z,80.47
2023-02-13T05:36:06.632Z,80.47
2023-02-13T05:37:06.639Z,80.47
2023-02-13T05:38:06.680Z,80.47
2023-02-13T05:39:06.625Z,80.47
2023-02-13T05:40:06.656Z,80.47
2023-02-13T05:41:06.635Z,80.47
2023-02-13T05:42:06.628Z,80.47
2023-02-13T05:43:06.623Z,80.47
2023-02-13T05:44:06.643Z,80.47
2023-02-13T05:45:06.648Z,80.47
2023-02-13T05:46:06.687Z,80.47
2023-02-13T05:47:06.642Z,80.47
2023-02-13T05:48:06.650Z,80.47
2023-02-13T05:49:06.632Z,80.47
2023-02-13T05:50:06.632Z,80.47
2023-02-13T05:51:06.630Z,80.47
2023-02-13T05:52:06.645Z,80.47
2023-02-13T05:53:06.647Z,80.47
2023-02-13T05:54:06.634Z,80.47
2023-02-13T05:55:06.637Z,80.47
2023-02-13T05:56:06.638Z,80.47
2023-02-13T05:57:06.632Z,80.47
2023-02-13T05:58:06.627Z,80.47
2023-02-13T05:59:06.628Z,80.47
2023-02-13T06:00:06.671Z,80.47
2023-02-13T06:01:06.680Z,80.47
2023-02-13T06:02:06.629Z,80.47
2023-02-13T06:03:06.641Z,80.47
2023-02-13T06:04:06.726Z,80.47
2023-02-13T06:05:06.627Z,80.47
2023-02-13T06:06:06.634Z,80.47
2023-02-13T06:07:06.655Z,80.47
2023-02-13T06:08:06.634Z,80.47
2023-02-13T06:09:06.655Z,80.47
2023-02-13T06:10:06.652Z,80.47
2023-02-13T06:11:06.642Z,80.47
2023-02-13T06:12:06.645Z,80.47
2023-02-13T06:13:06.643Z,80.47
2023-02-13T06:14:06.650Z,80.47
2023-02-13T06:15:06.644Z,80.47
2023-02-13T06:16:06.662Z,80.47
2023-02-13T06:17:06.676Z,80.47
2023-02-13T06:18:06.649Z,80.47
2023-02-13T06:19:06.652Z,80.47
2023-02-13T06:20:06.662Z,80.47
2023-02-13T06:21:06.656Z,80.47
2023-02-13T06:22:06.672Z,80.47
2023-02-13T06:23:06.665Z,80.47
2023-02-13T06:24:06.651Z,80.47
2023-02-13T06:25:06.661Z,80.47
2023-02-13T06:26:06.662Z,80.47
2023-02-13T06:27:06.676Z,80.47
2023-02-13T06:28:06.717Z,80.47
2023-02-13T06:29:06.870Z,80.47
2023-02-13T06:30:06.672Z,80.47
2023-02-13T06:31:06.819Z,80.47
2023-02-13T06:32:06.670Z,80.47
2023-02-13T06:33:06.676Z,80.47
2023-02-13T06:34:06.666Z,80.47
2023-02-13T06:35:06.659Z,80.47
2023-02-13T06:36:06.689Z,80.47
2023-02-13T06:37:06.657Z,80.47
2023-02-13T06:38:06.679Z,80.47
2023-02-13T06:39:06.679Z,80.47
2023-02-13T06:40:06.673Z,80.47
2023-02-13T06:41:06.669Z,80.47
2023-02-13T06:42:06.670Z,80.47
2023-02-13T06:43:06.678Z,80.47
2023-02-13T06:44:06.668Z,80.47
2023-02-13T06:45:06.684Z,80.47
2023-02-13T06:46:06.703Z,80.47
2023-02-13T06:47:06.675Z,80.47
2023-02-13T06:48:06.683Z,80.47
2023-02-13T06:49:06.722Z,80.47
2023-02-13T06:50:06.675Z,80.47
2023-02-13T06:51:06.702Z,80.47
2023-02-13T06:52:06.673Z,80.47
2023-02-13T06:53:06.697Z,80.47
2023-02-13T06:54:06.694Z,80.47
2023-02-13T06:55:06.686Z,80.47
2023-02-13T06:56:06.688Z,80.47
2023-02-13T06:57:06.705Z,80.47
2023-02-13T06:58:06.692Z,80.47
2023-02-13T06:59:06.703Z,80.47
2023-02-13T07:00:06.702Z,80.47
2023-02-13T07:01:06.825Z,80.47
2023-02-13T07:02:06.712Z,80.47
2023-02-13T07:03:06.798Z,80.47
2023-02-13T07:04:06.708Z,80.47
2023-02-13T07:05:06.718Z,80.47
2023-02-13T07:06:06.699Z,80.47
2023-02-13T07:07:06.713Z,80.47
2023-02-13T07:08:06.707Z,80.47
2023-02-13T07:09:06.712Z,80.47
2023-02-13T07:10:06.701Z,80.47
2023-02-13T07:11:06.717Z,80.47
2023-02-13T07:12:06.715Z,80.47
2023-02-13T07:13:06.702Z,80.47
2023-02-13T07:14:06.701Z,80.47
2023-02-13T07:15:06.711Z,80.47
2023-02-13T07:16:06.802Z,80.47
2023-02-13T07:17:06.719Z,80.47
2023-02-13T07:18:06.708Z,80.47
2023-02-13T07:19:06.701Z,80.47
2023-02-13T07:20:06.708Z,80.47
2023-02-13T07:21:06.742Z,80.47
2023-02-13T07:22:06.696Z,80.47
2023-02-13T07:23:06.717Z,80.47
2023-02-13T07:24:08.101Z,80.47
2023-02-13T07:25:06.710Z,80.47
2023-02-13T07:26:06.712Z,80.47
2023-02-13T07:27:06.708Z,80.47
2023-02-13T07:28:06.844Z,80.47
2023-02-13T07:29:11.378Z,80.47
2023-02-13T07:30:06.710Z,80.47
2023-02-13T07:31:06.954Z,80.47
2023-02-13T07:32:06.766Z,80.47
2023-02-13T07:33:06.730Z,80.47
2023-02-13T07:34:06.733Z,80.47
2023-02-13T07:35:06.729Z,80.47
2023-02-13T07:36:06.729Z,80.47
2023-02-13T07:37:06.765Z,80.47
2023-02-13T07:38:06.732Z,80.47
2023-02-13T07:39:06.740Z,80.47
2023-02-13T07:40:06.705Z,80.47
2023-02-13T07:41:06.728Z,80.47
2023-02-13T07:42:06.722Z,80.47
2023-02-13T07:43:06.732Z,80.47
2023-02-13T07:44:06.734Z,80.47
2023-02-13T07:45:06.747Z,80.47
2023-02-13T07:46:06.728Z,80.47
2023-02-13T07:47:06.800Z,80.47
2023-02-13T07:48:06.734Z,80.47
2023-02-13T07:49:06.732Z,80.47
2023-02-13T07:50:06.733Z,80.47
2023-02-13T07:51:06.747Z,80.47
2023-02-13T07:52:06.747Z,80.47
2023-02-13T07:53:06.765Z,80.47
2023-02-13T07:54:06.727Z,80.47
2023-02-13T07:55:06.798Z,80.47
2023-02-13T07:56:06.744Z,80.47
2023-02-13T07:57:06.743Z,80.47
2023-02-13T07:58:06.761Z,80.47
2023-02-13T07:59:07.835Z,80.47
2023-02-13T08:00:06.738Z,80.47
2023-02-13T08:01:06.739Z,80.47
2023-02-13T08:02:06.809Z,80.47
2023-02-13T08:03:06.746Z,80.47
2023-02-13T08:04:06.798Z,80.47
2023-02-13T08:05:06.754Z,80.47
2023-02-13T08:06:06.763Z,80.47
2023-02-13T08:07:06.744Z,80.47
2023-02-13T08:08:06.744Z,80.47
2023-02-13T08:09:06.771Z,80.47
2023-02-13T08:10:06.749Z,80.47
2023-02-13T08:11:06.748Z,80.47
2023-02-13T08:12:06.746Z,80.47
2023-02-13T08:13:06.734Z,80.47
2023-02-13T08:14:06.793Z,80.47
2023-02-13T08:15:06.794Z,80.47
2023-02-13T08:16:06.804Z,80.47
2023-02-13T08:17:06.756Z,80.47
2023-02-13T08:18:06.742Z,80.47
2023-02-13T08:19:06.757Z,80.47
2023-02-13T08:20:06.799Z,80.47
2023-02-13T08:21:06.764Z,80.47
2023-02-13T08:22:06.763Z,80.47
2023-02-13T08:23:06.826Z,80.47
2023-02-13T08:24:06.765Z,80.47
2023-02-13T08:25:06.777Z,80.47
2023-02-13T08:26:06.804Z,80.47
2023-02-13T08:27:06.743Z,80.47
2023-02-13T08:28:06.848Z,80.47
2023-02-13T08:29:06.770Z,80.47
2023-02-13T08:30:06.772Z,80.47
2023-02-13T08:31:06.800Z,80.47
2023-02-13T08:32:06.896Z,80.47
2023-02-13T08:33:06.751Z,80.47
2023-02-13T08:34:06.748Z,80.47
2023-02-13T08:35:06.759Z,80.47
2023-02-13T08:36:06.865Z,80.47
2023-02-13T08:37:06.758Z,80.47
2023-02-13T08:38:06.821Z,80.47
2023-02-13T08:39:06.792Z,80.47
2023-02-13T08:40:06.789Z,80.47
2023-02-13T08:41:06.778Z,80.47
2023-02-13T08:42:06.779Z,80.47
2023-02-13T08:43:06.775Z,80.47
2023-02-13T08:44:06.758Z,80.47
2023-02-13T08:45:06.759Z,80.47
2023-02-13T08:46:06.951Z,80.47
2023-02-13T08:47:06.771Z,80.47
2023-02-13T08:48:06.790Z,80.47
2023-02-13T08:49:06.773Z,80.47
2023-02-13T08:50:06.773Z,80.47
2023-02-13T08:51:06.755Z,80.47
2023-02-13T08:52:06.755Z,80.47
2023-02-13T08:53:06.765Z,80.47
2023-02-13T08:54:06.804Z,80.47
2023-02-13T08:55:06.797Z,80.47
2023-02-13T08:56:06.768Z,80.47
2023-02-13T08:57:06.791Z,80.47
2023-02-13T08:58:06.788Z,80.47
2023-02-13T08:59:06.778Z,80.47
2023-02-13T09:00:06.802Z,80.47
2023-02-13T09:01:06.874Z,80.47
2023-02-13T09:02:06.760Z,80.47
2023-02-13T09:03:08.475Z,80.47
2023-02-13T09:04:06.772Z,80.47
2023-02-13T09:05:06.768Z,80.47
2023-02-13T09:06:06.756Z,80.47
2023-02-13T09:07:06.769Z,80.47
2023-02-13T09:08:06.833Z,80.47
2023-02-13T09:09:06.828Z,80.47
2023-02-13T09:10:06.769Z,80.47
2023-02-13T09:11:06.759Z,80.47
2023-02-13T09:12:06.780Z,80.47
2023-02-13T09:13:06.796Z,80.47
2023-02-13T09:14:06.765Z,80.47
2023-02-13T09:15:06.775Z,80.47
2023-02-13T09:16:06.814Z,80.47
2023-02-13T09:17:06.856Z,80.47
2023-02-13T09:18:06.807Z,80.47
2023-02-13T09:19:06.775Z,80.47
2023-02-13T09:20:06.783Z,80.47
2023-02-13T09:21:06.811Z,80.47
2023-02-13T09:22:06.772Z,80.47
2023-02-13T09:23:06.775Z,80.47
2023-02-13T09:24:06.786Z,80.47
2023-02-13T09:25:06.784Z,80.47
2023-02-13T09:26:06.795Z,80.47
2023-02-13T09:27:06.778Z,80.47
2023-02-13T09:28:06.968Z,80.47
2023-02-13T09:29:06.819Z,80.47
2023-02-13T09:30:06.781Z,80.47
2023-02-13T09:31:06.971Z,80.47
2023-02-13T09:32:06.847Z,80.47
2023-02-13T09:33:06.800Z,80.47
2023-02-13T09:34:06.824Z,80.47
2023-02-13T09:35:06.838Z,80.47
2023-02-13T09:36:06.846Z,80.47
2023-02-13T09:37:06.800Z,80.47
2023-02-13T09:38:06.793Z,80.47
2023-02-13T09:39:06.806Z,80.47
2023-02-13T09:40:06.806Z,80.47
2023-02-13T09:41:06.817Z,80.47
2023-02-13T09:42:06.831Z,80.47
2023-02-13T09:43:06.852Z,80.47
2023-02-13T09:44:06.837Z,80.47
2023-02-13T09:45:06.861Z,80.47
2023-02-13T09:46:06.957Z,80.47
2023-02-13T09:47:06.798Z,80.47
2023-02-13T09:48:06.833Z,80.47
2023-02-13T09:49:06.825Z,80.47
2023-02-13T09:50:06.855Z,80.47
2023-02-13T09:51:06.803Z,80.47
2023-02-13T09:52:06.818Z,80.47
2023-02-13T09:53:06.797Z,80.47
2023-02-13T09:54:06.818Z,80.47
2023-02-13T09:55:06.851Z,80.47
2023-02-13T09:56:06.810Z,80.47
2023-02-13T09:57:06.832Z,80.47
2023-02-13T09:58:06.812Z,80.47
2023-02-13T09:59:06.860Z,80.47
2023-02-13T10:00:06.834Z,80.47
2023-02-13T10:01:06.913Z,80.47
2023-02-13T10:02:06.802Z,80.47
2023-02-13T10:03:06.848Z,80.47
2023-02-13T10:04:06.830Z,80.47
2023-02-13T10:05:06.896Z,80.47
2023-02-13T10:06:06.840Z,80.47
2023-02-13T10:07:06.838Z,80.47
2023-02-13T10:08:06.840Z,80.47
2023-02-13T10:09:06.838Z,80.47
2023-02-13T10:10:06.829Z,80.47
2023-02-13T10:11:06.803Z,80.47
2023-02-13T10:12:06.860Z,80.47
2023-02-13T10:13:06.850Z,80.47
2023-02-13T10:14:06.833Z,80.47
2023-02-13T10:15:06.822Z,80.47
2023-02-13T10:16:06.890Z,80.47
2023-02-13T10:17:06.851Z,80.47
2023-02-13T10:18:06.845Z,80.47
2023-02-13T10:19:06.821Z,80.47
2023-02-13T10:20:06.848Z,80.47
2023-02-13T10:21:06.830Z,80.47
2023-02-13T10:22:06.840Z,80.47
2023-02-13T10:23:06.845Z,80.47
2023-02-13T10:24:06.881Z,80.47
2023-02-13T10:25:06.826Z,80.47
2023-02-13T10:26:06.819Z,80.47
2023-02-13T10:27:06.846Z,80.47
2023-02-13T10:28:06.893Z,80.47
2023-02-13T10:29:06.912Z,80.47
2023-02-13T10:30:06.893Z,80.47
2023-02-13T10:31:06.939Z,80.47
2023-02-13T10:32:06.907Z,80.47
2023-02-13T10:33:06.853Z,80.47
2023-02-13T10:34:06.832Z,80.47
2023-02-13T10:35:06.824Z,80.47
2023-02-13T10:36:06.872Z,80.47
2023-02-13T10:37:06.872Z,80.47
2023-02-13T10:38:06.863Z,80.47
2023-02-13T10:39:06.829Z,80.47
2023-02-13T10:40:06.828Z,80.47
2023-02-13T10:41:06.897Z,80.47
2023-02-13T10:42:06.823Z,80.47
2023-02-13T10:43:06.862Z,80.47
2023-02-13T10:44:06.830Z,80.47
2023-02-13T10:45:06.831Z,80.47
2023-02-13T10:46:06.884Z,80.47
2023-02-13T10:47:06.834Z,80.47
2023-02-13T10:48:06.838Z,80.47
2023-02-13T10:49:06.866Z,80.47
2023-02-13T10:50:06.839Z,80.47
2023-02-13T10:51:06.837Z,80.47
2023-02-13T10:52:06.848Z,80.47
2023-02-13T10:53:06.841Z,80.47
2023-02-13T10:54:06.841Z,80.47
2023-02-13T10:55:06.851Z,80.47
2023-02-13T10:56:06.849Z,80.47
2023-02-13T10:57:06.842Z,80.47
2023-02-13T10:58:06.839Z,80.47
2023-02-13T10:59:06.843Z,80.47
2023-02-13T11:00:06.866Z,80.47
2023-02-13T11:01:06.906Z,80.47
2023-02-13T11:02:06.849Z,80.47
2023-02-13T11:03:06.845Z,80.47
2023-02-13T11:04:06.880Z,80.47
2023-02-13T11:05:06.861Z,80.47
2023-02-13T11:06:06.845Z,80.47
2023-02-13T11:07:06.859Z,80.47
2023-02-13T11:08:06.852Z,80.47
2023-02-13T11:09:06.856Z,80.47
2023-02-13T11:10:06.838Z,80.47
2023-02-13T11:11:06.848Z,80.47
2023-02-13T11:12:06.863Z,80.47
2023-02-13T11:13:06.847Z,80.47
2023-02-13T11:14:06.840Z,80.47
2023-02-13T11:15:06.844Z,80.47
2023-02-13T11:16:06.905Z,80.47
2023-02-13T11:17:06.837Z,80.47
2023-02-13T11:18:06.848Z,80.47
2023-02-13T11:19:06.833Z,80.47
2023-02-13T11:20:06.854Z,80.47
2023-02-13T11:21:06.877Z,80.47
2023-02-13T11:22:06.865Z,80.47
2023-02-13T11:23:06.846Z,80.47
2023-02-13T11:24:06.843Z,80.47
2023-02-13T11:25:06.851Z,80.47
2023-02-13T11:26:06.850Z,80.47
2023-02-13T11:27:06.845Z,80.47
2023-02-13T11:28:06.917Z,80.47
2023-02-13T11:29:06.846Z,80.47
2023-02-13T11:30:06.844Z,80.47
2023-02-13T11:31:06.904Z,80.47
2023-02-13T11:32:07.015Z,80.47
2023-02-13T11:33:06.866Z,80.47
2023-02-13T11:34:06.864Z,80.47
2023-02-13T11:35:06.854Z,80.47
2023-02-13T11:36:06.853Z,80.47
2023-02-13T11:37:06.899Z,80.47
2023-02-13T11:38:06.857Z,80.47
2023-02-13T11:39:06.870Z,80.47
2023-02-13T11:40:06.850Z,80.47
2023-02-13T11:41:06.857Z,80.47
2023-02-13T11:42:06.860Z,80.47
2023-02-13T11:43:06.856Z,80.47
2023-02-13T11:44:06.857Z,80.47
2023-02-13T11:45:06.860Z,80.47
2023-02-13T11:46:06.842Z,80.47
2023-02-13T11:47:06.923Z,80.47
2023-02-13T11:48:06.891Z,80.47
2023-02-13T11:49:06.848Z,80.47
2023-02-13T11:50:06.835Z,80.47
2023-02-13T11:51:06.872Z,80.47
2023-02-13T11:52:06.856Z,80.47
2023-02-13T11:53:06.878Z,80.47
2023-02-13T11:54:06.853Z,80.47
2023-02-13T11:55:06.896Z,80.47
2023-02-13T11:56:06.875Z,80.47
2023-02-13T11:57:06.857Z,80.47
2023-02-13T11:58:06.881Z,80.47
2023-02-13T11:59:06.939Z,80.47
2023-02-13T12:00:06.850Z,80.47
2023-02-13T12:01:06.865Z,80.47
2023-02-13T12:02:06.858Z,80.47
2023-02-13T12:03:06.989Z,80.47
2023-02-13T12:04:06.854Z,80.47
2023-02-13T12:05:06.860Z,80.47
2023-02-13T12:06:06.880Z,80.47
2023-02-13T12:07:06.864Z,80.47
2023-02-13T12:08:06.861Z,80.47
2023-02-13T12:09:06.980Z,80.47
2023-02-13T12:10:06.874Z,80.47
2023-02-13T12:11:06.861Z,80.47
2023-02-13T12:12:07.641Z,80.47
2023-02-13T12:13:06.878Z,80.47
2023-02-13T12:14:06.870Z,80.47
2023-02-13T12:15:06.870Z,80.47
2023-02-13T12:16:06.917Z,80.47
2023-02-13T12:17:06.877Z,80.47
2023-02-13T12:18:06.874Z,80.47
2023-02-13T12:19:06.878Z,80.47
2023-02-13T12:20:06.884Z,80.47
2023-02-13T12:21:06.881Z,80.47
2023-02-13T12:22:06.876Z,80.47
2023-02-13T12:23:06.884Z,80.47
2023-02-13T12:24:06.881Z,80.47
2023-02-13T12:25:06.900Z,80.47
2023-02-13T12:26:06.892Z,80.47
2023-02-13T12:27:06.898Z,80.47
2023-02-13T12:28:06.921Z,80.47
2023-02-13T12:29:06.922Z,80.47
2023-02-13T12:30:06.890Z,80.47
2023-02-13T12:31:06.920Z,80.47
2023-02-13T12:32:06.883Z,80.47
2023-02-13T12:33:06.880Z,80.47
2023-02-13T12:34:06.868Z,80.47
2023-02-13T12:35:06.881Z,80.47
2023-02-13T12:36:06.876Z,80.47
2023-02-13T12:37:06.875Z,80.47
2023-02-13T12:38:06.890Z,80.47
2023-02-13T12:39:06.886Z,80.47
2023-02-13T12:40:07.967Z,303.53
2023-02-13T12:41:06.911Z,299.29
2023-02-13T12:42:06.879Z,283.76
2023-02-13T12:43:06.876Z,290.82
2023-02-13T12:44:06.882Z,288
2023-02-13T12:45:06.879Z,282.35
2023-02-13T12:46:06.924Z,282.35
2023-02-13T12:47:06.873Z,262.59
2023-02-13T12:48:06.879Z,295.06
2023-02-13T12:49:06.876Z,295.06
2023-02-13T12:50:06.893Z,295.06
2023-02-13T12:51:06.880Z,295.06
2023-02-13T12:52:06.879Z,295.06